»·PEaware :: N619PA KMRY-KSBP

N619PA :: KMRY-KSBP

FLIGHT INFORMATION

Flight Status: Arrived
Operator: Privately registered:
United States
More flights under this callsign
Pilot: Saso K. (7898)
Aircraft: SOCATA TBM-900
(TBM9)
More flights by this aircraft type
Origin: KMRY Monterey Peninsula
United States
Destination: KSBP San Luis Co Regl
United States
More flights between these airports :: More routes between these airports
Route: +MRY4 SNS V25 PRB
File this flight plan on PilotEdge
Remarks:
Altitude:
(Current/Filed)
17,000ft
Speed:
(Current/Filed)
300kts
Departed: 01-Mar-18 03:12 PM
Arrived: 01-Mar-18 03:50 PM
Distance/Time
Traveled:
100nm/0:37
Distance/Time
To Go:
Arrived

Flight Plot

Page will automatically refresh every two minutes.

Flight plan parsing failed; only flown route is shown


Map Options




Map Legend


Flown Route
Filed Route
Departure Airport
Arrival Airport
Navaid (VOR, NDB)
Fix

Horizontal Profiles

Position Reports

Time Latitude Longitude Heading Altitude Ground
Speed
01-Mar-18 15:03 36.591182 -121.848768 191 154ft 0kts
01-Mar-18 15:04 36.591182 -121.848768 191 154ft 0kts
01-Mar-18 15:05 36.591182 -121.848768 191 154ft 0kts
01-Mar-18 15:06 36.591182 -121.848768 191 154ft 0kts
01-Mar-18 15:07 36.591182 -121.848768 191 154ft 0kts
01-Mar-18 15:08 36.591182 -121.848768 191 154ft 0kts
01-Mar-18 15:09 36.591182 -121.848768 191 154ft 0kts
01-Mar-18 15:10 36.591182 -121.848768 191 154ft 0kts
01-Mar-18 15:11 36.591182 -121.848768 191 154ft 0kts
01-Mar-18 15:12 36.591182 -121.848768 191 154ft 0kts
01-Mar-18 15:13 36.591182 -121.848768 191 154ft 0kts
01-Mar-18 15:14 36.591182 -121.848768 191 154ft 0kts
01-Mar-18 15:15 36.591182 -121.848768 191 154ft 0kts
01-Mar-18 15:16 36.590705 -121.849558 252 157ft 14kts
01-Mar-18 15:17 36.591442 -121.854814 294 149ft 17kts
01-Mar-18 15:18 36.590970 -121.856100 112 150ft 12kts
01-Mar-18 15:19 36.579102 -121.826406 130 983ft 134kts
01-Mar-18 15:20 36.553064 -121.790142 138 2783ft 151kts
01-Mar-18 15:21 36.545641 -121.745991 34 4675ft 183kts
01-Mar-18 15:22 36.589556 -121.746737 30 7172ft 165kts
01-Mar-18 15:23 36.593225 -121.697772 113 8998ft 179kts
01-Mar-18 15:24 36.568835 -121.645573 132 10585ft 193kts
01-Mar-18 15:25 36.543602 -121.597236 131 11830ft 214kts
01-Mar-18 15:26 36.512804 -121.538005 131 13313ft 222kts
01-Mar-18 15:27 36.482985 -121.480642 132 14581ft 229kts
01-Mar-18 15:28 36.449471 -121.416311 132 16002ft 238kts
01-Mar-18 15:29 36.413930 -121.355697 151 17021ft 243kts
01-Mar-18 15:30 36.378019 -121.320178 151 17010ft 270kts
01-Mar-18 15:31 36.319397 -121.262112 151 17000ft 285kts
01-Mar-18 15:32 36.259490 -121.202823 150 16997ft 290kts
01-Mar-18 15:33 36.200316 -121.144346 150 17015ft 290kts
01-Mar-18 15:34 36.140431 -121.085318 151 17040ft 289kts
01-Mar-18 15:35 36.078671 -121.024624 150 16937ft 292kts
01-Mar-18 15:36 36.022574 -120.969560 151 16949ft 289kts
01-Mar-18 15:37 35.962235 -120.910470 151 16951ft 287kts
01-Mar-18 15:38 35.901237 -120.850874 151 16952ft 288kts
01-Mar-18 15:39 35.847594 -120.798571 151 16958ft 289kts
01-Mar-18 15:40 35.792337 -120.744953 150 16254ft 305kts
01-Mar-18 15:41 35.727038 -120.681467 149 15327ft 306kts
01-Mar-18 15:42 35.661851 -120.631624 192 13930ft 263kts
01-Mar-18 15:43 35.609645 -120.677402 222 12155ft 231kts
01-Mar-18 15:44 35.563090 -120.727807 222 9108ft 229kts
01-Mar-18 15:45 35.522773 -120.774466 222 6675ft 219kts
01-Mar-18 15:46 35.480486 -120.825608 222 4535ft 209kts
01-Mar-18 15:47 35.440401 -120.875608 223 3955ft 202kts
01-Mar-18 15:48 35.396315 -120.896669 148 3979ft 199kts
01-Mar-18 15:49 35.359018 -120.852866 131 3955ft 167kts
01-Mar-18 15:50 35.332980 -120.807510 131 3283ft 160kts
01-Mar-18 15:51 35.307966 -120.763792 132 2441ft 154kts
01-Mar-18 15:52 35.288200 -120.729134 134 1733ft 101kts
01-Mar-18 15:53 35.273880 -120.703917 131 1228ft 82kts
01-Mar-18 15:54 35.261219 -120.682172 138 863ft 83kts
01-Mar-18 15:55 35.248622 -120.660645 136 433ft 75kts
01-Mar-18 15:56 35.237803 -120.641428 128 185ft 49kts
01-Mar-18 15:57 35.235370 -120.636062 84 206ft 0kts
01-Mar-18 15:58 35.235370 -120.636062 84 206ft 0kts
01-Mar-18 15:59 35.235547 -120.635143 0 209ft 9kts
01-Mar-18 16:00 35.235636 -120.635006 124 210ft 0kts
01-Mar-18 16:01 35.235636 -120.635007 123 210ft 0kts
01-Mar-18 16:02 35.235636 -120.635007 123 210ft 0kts

Navigation Log

Ident Type
Flight plan parsing failed, navigation log unavailable